sensor_id;sensor_type;location;lat;lon;timestamp;temperature;humidity
81161;DHT22;70637;48.514;14.500;2023-07-02T00:02:16;21.90;51.40
81161;DHT22;70637;48.514;14.500;2023-07-02T00:04:42;21.90;51.10
81161;DHT22;70637;48.514;14.500;2023-07-02T00:07:10;21.90;51.70
81161;DHT22;70637;48.514;14.500;2023-07-02T00:09:37;21.80;51.70
81161;DHT22;70637;48.514;14.500;2023-07-02T00:12:02;21.80;52.00
81161;DHT22;70637;48.514;14.500;2023-07-02T00:14:28;21.80;52.10
81161;DHT22;70637;48.514;14.500;2023-07-02T00:16:54;21.80;52.30
81161;DHT22;70637;48.514;14.500;2023-07-02T00:19:20;21.80;52.30
81161;DHT22;70637;48.514;14.500;2023-07-02T00:21:46;21.90;52.10
81161;DHT22;70637;48.514;14.500;2023-07-02T00:24:12;21.90;51.90
81161;DHT22;70637;48.514;14.500;2023-07-02T00:26:38;21.90;51.80
81161;DHT22;70637;48.514;14.500;2023-07-02T00:29:05;21.90;51.80
81161;DHT22;70637;48.514;14.500;2023-07-02T00:31:32;21.90;51.80
81161;DHT22;70637;48.514;14.500;2023-07-02T00:33:58;21.90;51.80
81161;DHT22;70637;48.514;14.500;2023-07-02T00:36:24;21.90;51.90
81161;DHT22;70637;48.514;14.500;2023-07-02T00:38:49;21.90;51.80
81161;DHT22;70637;48.514;14.500;2023-07-02T00:41:16;21.90;51.90
81161;DHT22;70637;48.514;14.500;2023-07-02T00:43:41;21.90;52.00
81161;DHT22;70637;48.514;14.500;2023-07-02T00:46:17;21.90;51.90
81161;DHT22;70637;48.514;14.500;2023-07-02T00:48:50;21.90;52.00
81161;DHT22;70637;48.514;14.500;2023-07-02T00:51:24;21.80;52.10
81161;DHT22;70637;48.514;14.500;2023-07-02T00:53:53;21.90;51.90
81161;DHT22;70637;48.514;14.500;2023-07-02T00:56:18;21.80;51.80
81161;DHT22;70637;48.514;14.500;2023-07-02T00:58:48;21.80;52.00
81161;DHT22;70637;48.514;14.500;2023-07-02T01:01:23;21.80;52.00
81161;DHT22;70637;48.514;14.500;2023-07-02T01:04:02;21.80;52.10
81161;DHT22;70637;48.514;14.500;2023-07-02T01:06:30;21.70;52.30
81161;DHT22;70637;48.514;14.500;2023-07-02T01:08:57;21.70;52.30
81161;DHT22;70637;48.514;14.500;2023-07-02T01:11:48;21.80;52.20
81161;DHT22;70637;48.514;14.500;2023-07-02T01:16:44;21.80;52.20
81161;DHT22;70637;48.514;14.500;2023-07-02T01:19:18;21.80;52.20
81161;DHT22;70637;48.514;14.500;2023-07-02T01:21:46;21.70;52.50
81161;DHT22;70637;48.514;14.500;2023-07-02T01:24:13;21.70;52.70
81161;DHT22;70637;48.514;14.500;2023-07-02T01:26:40;21.70;52.70
81161;DHT22;70637;48.514;14.500;2023-07-02T01:29:15;21.80;52.80
81161;DHT22;70637;48.514;14.500;2023-07-02T01:31:41;21.70;52.80
81161;DHT22;70637;48.514;14.500;2023-07-02T01:34:06;21.70;53.10
81161;DHT22;70637;48.514;14.500;2023-07-02T01:36:33;21.60;53.50
81161;DHT22;70637;48.514;14.500;2023-07-02T01:38:59;21.60;53.80
81161;DHT22;70637;48.514;14.500;2023-07-02T01:41:24;21.60;54.20
81161;DHT22;70637;48.514;14.500;2023-07-02T01:43:50;21.70;54.10
81161;DHT22;70637;48.514;14.500;2023-07-02T01:46:16;21.70;54.00
81161;DHT22;70637;48.514;14.500;2023-07-02T01:48:44;21.70;54.00
81161;DHT22;70637;48.514;14.500;2023-07-02T01:51:09;21.70;54.00
81161;DHT22;70637;48.514;14.500;2023-07-02T01:53:35;21.80;54.90
81161;DHT22;70637;48.514;14.500;2023-07-02T01:56:01;21.70;53.80
81161;DHT22;70637;48.514;14.500;2023-07-02T01:58:26;21.80;54.10
81161;DHT22;70637;48.514;14.500;2023-07-02T02:00:52;21.80;54.30
81161;DHT22;70637;48.514;14.500;2023-07-02T02:03:19;21.90;54.20
81161;DHT22;70637;48.514;14.500;2023-07-02T02:05:45;21.90;53.30
81161;DHT22;70637;48.514;14.500;2023-07-02T02:08:11;21.90;53.20
81161;DHT22;70637;48.514;14.500;2023-07-02T02:10:36;21.80;53.80
81161;DHT22;70637;48.514;14.500;2023-07-02T02:13:02;21.80;53.90
81161;DHT22;70637;48.514;14.500;2023-07-02T02:15:27;21.80;54.20
81161;DHT22;70637;48.514;14.500;2023-07-02T02:17:53;21.70;54.20
81161;DHT22;70637;48.514;14.500;2023-07-02T02:20:19;21.80;54.40
81161;DHT22;70637;48.514;14.500;2023-07-02T02:22:44;21.80;54.80
81161;DHT22;70637;48.514;14.500;2023-07-02T02:25:10;21.80;56.20
81161;DHT22;70637;48.514;14.500;2023-07-02T02:27:35;21.70;55.20
81161;DHT22;70637;48.514;14.500;2023-07-02T02:30:01;21.70;55.50
81161;DHT22;70637;48.514;14.500;2023-07-02T02:32:27;21.80;55.70
81161;DHT22;70637;48.514;14.500;2023-07-02T02:34:52;21.80;55.40
81161;DHT22;70637;48.514;14.500;2023-07-02T02:37:20;21.80;55.10
81161;DHT22;70637;48.514;14.500;2023-07-02T02:39:45;21.80;55.40
81161;DHT22;70637;48.514;14.500;2023-07-02T02:42:11;21.90;55.10
81161;DHT22;70637;48.514;14.500;2023-07-02T02:44:36;21.90;54.50
81161;DHT22;70637;48.514;14.500;2023-07-02T02:47:02;21.80;55.10
81161;DHT22;70637;48.514;14.500;2023-07-02T02:49:30;21.80;55.50
81161;DHT22;70637;48.514;14.500;2023-07-02T02:51:55;21.90;55.20
81161;DHT22;70637;48.514;14.500;2023-07-02T02:54:21;22.00;54.70
81161;DHT22;70637;48.514;14.500;2023-07-02T02:56:47;21.70;55.40
81161;DHT22;70637;48.514;14.500;2023-07-02T02:59:12;21.70;55.30
81161;DHT22;70637;48.514;14.500;2023-07-02T03:01:38;21.80;55.30
81161;DHT22;70637;48.514;14.500;2023-07-02T03:04:04;21.70;55.40
81161;DHT22;70637;48.514;14.500;2023-07-02T03:06:31;21.60;55.80
81161;DHT22;70637;48.514;14.500;2023-07-02T03:08:56;21.50;56.30
81161;DHT22;70637;48.514;14.500;2023-07-02T03:11:22;21.40;56.70
81161;DHT22;70637;48.514;14.500;2023-07-02T03:13:48;21.30;57.10
81161;DHT22;70637;48.514;14.500;2023-07-02T03:16:14;21.30;57.50
81161;DHT22;70637;48.514;14.500;2023-07-02T03:18:39;21.20;57.60
81161;DHT22;70637;48.514;14.500;2023-07-02T03:21:05;21.20;57.70
81161;DHT22;70637;48.514;14.500;2023-07-02T03:23:30;21.20;57.70
81161;DHT22;70637;48.514;14.500;2023-07-02T03:25:56;21.30;57.50
81161;DHT22;70637;48.514;14.500;2023-07-02T03:28:22;21.20;57.60
81161;DHT22;70637;48.514;14.500;2023-07-02T03:30:47;21.30;57.80
81161;DHT22;70637;48.514;14.500;2023-07-02T03:33:13;21.10;58.20
81161;DHT22;70637;48.514;14.500;2023-07-02T03:35:38;21.10;58.50
81161;DHT22;70637;48.514;14.500;2023-07-02T03:38:04;21.20;58.50
81161;DHT22;70637;48.514;14.500;2023-07-02T03:40:31;21.30;58.30
81161;DHT22;70637;48.514;14.500;2023-07-02T03:42:57;21.40;58.00
81161;DHT22;70637;48.514;14.500;2023-07-02T03:45:22;21.60;57.30
81161;DHT22;70637;48.514;14.500;2023-07-02T03:47:48;21.60;57.00
81161;DHT22;70637;48.514;14.500;2023-07-02T03:50:14;21.50;57.20
81161;DHT22;70637;48.514;14.500;2023-07-02T03:52:39;21.40;57.70
81161;DHT22;70637;48.514;14.500;2023-07-02T03:55:05;21.30;57.90
81161;DHT22;70637;48.514;14.500;2023-07-02T03:57:31;21.20;58.30
81161;DHT22;70637;48.514;14.500;2023-07-02T03:59:57;21.30;58.40
81161;DHT22;70637;48.514;14.500;2023-07-02T04:02:22;21.40;57.90
81161;DHT22;70637;48.514;14.500;2023-07-02T04:04:48;21.30;58.30
81161;DHT22;70637;48.514;14.500;2023-07-02T04:07:13;21.30;58.50
81161;DHT22;70637;48.514;14.500;2023-07-02T04:09:39;21.20;58.70
81161;DHT22;70637;48.514;14.500;2023-07-02T04:12:05;21.20;58.90
81161;DHT22;70637;48.514;14.500;2023-07-02T04:14:31;21.30;58.90
81161;DHT22;70637;48.514;14.500;2023-07-02T04:16:56;21.40;58.50
81161;DHT22;70637;48.514;14.500;2023-07-02T04:19:22;21.40;58.60
81161;DHT22;70637;48.514;14.500;2023-07-02T04:21:48;21.50;58.40
81161;DHT22;70637;48.514;14.500;2023-07-02T04:24:13;21.50;58.70
81161;DHT22;70637;48.514;14.500;2023-07-02T04:26:39;21.60;58.40
81161;DHT22;70637;48.514;14.500;2023-07-02T04:29:09;21.70;58.00
81161;DHT22;70637;48.514;14.500;2023-07-02T04:31:34;21.70;58.00
81161;DHT22;70637;48.514;14.500;2023-07-02T04:34:00;21.70;57.50
81161;DHT22;70637;48.514;14.500;2023-07-02T04:36:26;21.60;57.80
81161;DHT22;70637;48.514;14.500;2023-07-02T04:38:51;21.50;58.20
81161;DHT22;70637;48.514;14.500;2023-07-02T04:41:19;21.60;58.40
81161;DHT22;70637;48.514;14.500;2023-07-02T04:43:45;21.60;58.20
81161;DHT22;70637;48.514;14.500;2023-07-02T04:46:11;21.50;58.30
81161;DHT22;70637;48.514;14.500;2023-07-02T04:48:38;21.50;58.90
81161;DHT22;70637;48.514;14.500;2023-07-02T04:51:04;21.50;58.70
81161;DHT22;70637;48.514;14.500;2023-07-02T04:53:29;21.70;58.50
81161;DHT22;70637;48.514;14.500;2023-07-02T04:55:55;21.70;58.10
81161;DHT22;70637;48.514;14.500;2023-07-02T04:58:22;21.80;57.90
81161;DHT22;70637;48.514;14.500;2023-07-02T05:00:48;21.70;57.70
81161;DHT22;70637;48.514;14.500;2023-07-02T05:03:14;21.60;58.10
81161;DHT22;70637;48.514;14.500;2023-07-02T05:05:40;21.50;58.20
81161;DHT22;70637;48.514;14.500;2023-07-02T05:08:05;21.50;58.60
81161;DHT22;70637;48.514;14.500;2023-07-02T05:10:31;21.40;59.60
81161;DHT22;70637;48.514;14.500;2023-07-02T05:12:57;21.40;58.90
81161;DHT22;70637;48.514;14.500;2023-07-02T05:15:23;21.40;59.20
81161;DHT22;70637;48.514;14.500;2023-07-02T05:17:49;21.30;59.10
81161;DHT22;70637;48.514;14.500;2023-07-02T05:20:15;21.30;59.30
81161;DHT22;70637;48.514;14.500;2023-07-02T05:22:41;21.40;60.10
81161;DHT22;70637;48.514;14.500;2023-07-02T05:25:06;21.40;59.10
81161;DHT22;70637;48.514;14.500;2023-07-02T05:27:32;21.40;59.40
81161;DHT22;70637;48.514;14.500;2023-07-02T05:29:58;21.50;59.00
81161;DHT22;70637;48.514;14.500;2023-07-02T05:32:23;21.50;58.30
81161;DHT22;70637;48.514;14.500;2023-07-02T05:34:49;21.60;58.00
81161;DHT22;70637;48.514;14.500;2023-07-02T05:37:15;21.60;57.60
81161;DHT22;70637;48.514;14.500;2023-07-02T05:39:40;21.60;58.40
81161;DHT22;70637;48.514;14.500;2023-07-02T05:42:06;21.50;58.20
81161;DHT22;70637;48.514;14.500;2023-07-02T05:44:32;21.50;58.40
81161;DHT22;70637;48.514;14.500;2023-07-02T05:46:57;21.50;57.90
81161;DHT22;70637;48.514;14.500;2023-07-02T05:49:23;21.50;58.00
81161;DHT22;70637;48.514;14.500;2023-07-02T05:51:49;21.50;58.10
81161;DHT22;70637;48.514;14.500;2023-07-02T05:54:14;21.60;58.20
81161;DHT22;70637;48.514;14.500;2023-07-02T05:56:40;21.70;57.60
81161;DHT22;70637;48.514;14.500;2023-07-02T05:59:05;21.80;57.10
81161;DHT22;70637;48.514;14.500;2023-07-02T06:01:31;21.90;56.40
81161;DHT22;70637;48.514;14.500;2023-07-02T06:03:57;22.00;56.20
81161;DHT22;70637;48.514;14.500;2023-07-02T06:06:22;21.90;56.30
81161;DHT22;70637;48.514;14.500;2023-07-02T06:08:51;22.00;55.50
81161;DHT22;70637;48.514;14.500;2023-07-02T06:11:16;21.90;55.50
81161;DHT22;70637;48.514;14.500;2023-07-02T06:13:42;22.00;55.00
81161;DHT22;70637;48.514;14.500;2023-07-02T06:16:08;22.00;55.40
81161;DHT22;70637;48.514;14.500;2023-07-02T06:18:33;21.90;55.00
81161;DHT22;70637;48.514;14.500;2023-07-02T06:20:59;22.00;55.30
81161;DHT22;70637;48.514;14.500;2023-07-02T06:23:25;22.00;54.50
81161;DHT22;70637;48.514;14.500;2023-07-02T06:25:51;21.90;55.00
81161;DHT22;70637;48.514;14.500;2023-07-02T06:28:25;21.90;55.40
81161;DHT22;70637;48.514;14.500;2023-07-02T06:30:51;21.90;55.30
81161;DHT22;70637;48.514;14.500;2023-07-02T06:33:16;22.10;55.50
81161;DHT22;70637;48.514;14.500;2023-07-02T06:35:42;22.20;54.60
81161;DHT22;70637;48.514;14.500;2023-07-02T06:38:07;22.20;54.00
81161;DHT22;70637;48.514;14.500;2023-07-02T06:40:33;22.30;53.10
81161;DHT22;70637;48.514;14.500;2023-07-02T06:42:59;22.10;53.90
81161;DHT22;70637;48.514;14.500;2023-07-02T06:45:25;22.20;53.10
81161;DHT22;70637;48.514;14.500;2023-07-02T06:47:50;22.10;53.60
81161;DHT22;70637;48.514;14.500;2023-07-02T06:50:16;22.10;53.90
81161;DHT22;70637;48.514;14.500;2023-07-02T06:52:42;22.00;54.20
81161;DHT22;70637;48.514;14.500;2023-07-02T06:55:07;22.10;53.90
81161;DHT22;70637;48.514;14.500;2023-07-02T06:57:33;22.20;54.00
81161;DHT22;70637;48.514;14.500;2023-07-02T06:59:59;22.20;53.80
81161;DHT22;70637;48.514;14.500;2023-07-02T07:02:26;22.20;52.70
81161;DHT22;70637;48.514;14.500;2023-07-02T07:04:52;22.10;53.10
81161;DHT22;70637;48.514;14.500;2023-07-02T07:07:17;22.00;54.10
81161;DHT22;70637;48.514;14.500;2023-07-02T07:09:44;22.00;53.30
81161;DHT22;70637;48.514;14.500;2023-07-02T07:12:09;22.10;53.10
81161;DHT22;70637;48.514;14.500;2023-07-02T07:14:35;22.10;53.10
81161;DHT22;70637;48.514;14.500;2023-07-02T07:17:01;22.20;52.90
81161;DHT22;70637;48.514;14.500;2023-07-02T07:19:26;22.30;51.70
81161;DHT22;70637;48.514;14.500;2023-07-02T07:21:52;22.10;52.20
81161;DHT22;70637;48.514;14.500;2023-07-02T07:24:17;22.20;52.30
81161;DHT22;70637;48.514;14.500;2023-07-02T07:26:43;22.30;52.40
81161;DHT22;70637;48.514;14.500;2023-07-02T07:29:10;22.30;52.20
81161;DHT22;70637;48.514;14.500;2023-07-02T07:31:36;22.40;52.10
81161;DHT22;70637;48.514;14.500;2023-07-02T07:34:01;22.50;51.80
81161;DHT22;70637;48.514;14.500;2023-07-02T07:36:27;22.70;51.20
81161;DHT22;70637;48.514;14.500;2023-07-02T07:38:52;22.60;51.30
81161;DHT22;70637;48.514;14.500;2023-07-02T07:41:18;22.60;51.50
81161;DHT22;70637;48.514;14.500;2023-07-02T07:43:43;22.60;51.60
81161;DHT22;70637;48.514;14.500;2023-07-02T07:46:09;22.60;50.20
81161;DHT22;70637;48.514;14.500;2023-07-02T07:48:35;22.60;50.60
81161;DHT22;70637;48.514;14.500;2023-07-02T07:51:01;22.60;50.70
81161;DHT22;70637;48.514;14.500;2023-07-02T07:53:26;22.60;50.40
81161;DHT22;70637;48.514;14.500;2023-07-02T07:55:52;22.60;49.40
81161;DHT22;70637;48.514;14.500;2023-07-02T07:58:17;22.60;49.90
81161;DHT22;70637;48.514;14.500;2023-07-02T08:00:43;22.60;50.60
81161;DHT22;70637;48.514;14.500;2023-07-02T08:03:10;22.70;50.30
81161;DHT22;70637;48.514;14.500;2023-07-02T08:05:35;22.80;50.40
81161;DHT22;70637;48.514;14.500;2023-07-02T08:08:01;22.80;49.20
81161;DHT22;70637;48.514;14.500;2023-07-02T08:10:27;22.90;47.30
81161;DHT22;70637;48.514;14.500;2023-07-02T08:12:53;22.80;47.80
81161;DHT22;70637;48.514;14.500;2023-07-02T08:15:19;22.50;47.40
81161;DHT22;70637;48.514;14.500;2023-07-02T08:17:44;22.60;48.10
81161;DHT22;70637;48.514;14.500;2023-07-02T08:20:11;22.70;48.20
81161;DHT22;70637;48.514;14.500;2023-07-02T08:22:40;22.90;47.70
81161;DHT22;70637;48.514;14.500;2023-07-02T08:25:06;22.90;47.20
81161;DHT22;70637;48.514;14.500;2023-07-02T08:27:32;22.80;46.90
81161;DHT22;70637;48.514;14.500;2023-07-02T08:29:58;22.80;47.90
81161;DHT22;70637;48.514;14.500;2023-07-02T08:32:24;22.80;48.00
81161;DHT22;70637;48.514;14.500;2023-07-02T08:34:50;23.10;46.00
81161;DHT22;70637;48.514;14.500;2023-07-02T08:37:20;22.90;46.10
81161;DHT22;70637;48.514;14.500;2023-07-02T08:39:45;23.10;46.80
81161;DHT22;70637;48.514;14.500;2023-07-02T08:42:11;23.20;46.70
81161;DHT22;70637;48.514;14.500;2023-07-02T08:44:37;23.20;46.00
81161;DHT22;70637;48.514;14.500;2023-07-02T08:47:03;23.20;45.80
81161;DHT22;70637;48.514;14.500;2023-07-02T08:49:30;23.10;45.30
81161;DHT22;70637;48.514;14.500;2023-07-02T08:51:56;23.20;46.60
81161;DHT22;70637;48.514;14.500;2023-07-02T08:54:22;23.30;45.50
81161;DHT22;70637;48.514;14.500;2023-07-02T08:56:48;23.30;46.00
81161;DHT22;70637;48.514;14.500;2023-07-02T08:59:13;23.40;45.60
81161;DHT22;70637;48.514;14.500;2023-07-02T09:01:49;23.30;45.50
81161;DHT22;70637;48.514;14.500;2023-07-02T09:04:19;23.50;44.70
81161;DHT22;70637;48.514;14.500;2023-07-02T09:06:47;23.40;45.20
81161;DHT22;70637;48.514;14.500;2023-07-02T09:09:13;23.40;45.20
81161;DHT22;70637;48.514;14.500;2023-07-02T09:11:50;23.20;45.50
81161;DHT22;70637;48.514;14.500;2023-07-02T09:14:31;23.30;45.20
81161;DHT22;70637;48.514;14.500;2023-07-02T09:17:07;23.30;45.50
81161;DHT22;70637;48.514;14.500;2023-07-02T09:19:35;23.50;45.80
81161;DHT22;70637;48.514;14.500;2023-07-02T09:22:02;23.60;44.80
81161;DHT22;70637;48.514;14.500;2023-07-02T09:24:30;23.60;44.90
81161;DHT22;70637;48.514;14.500;2023-07-02T09:27:00;23.60;45.00
81161;DHT22;70637;48.514;14.500;2023-07-02T09:29:30;23.40;44.70
81161;DHT22;70637;48.514;14.500;2023-07-02T09:31:58;23.50;45.30
81161;DHT22;70637;48.514;14.500;2023-07-02T09:36:54;23.70;44.60
81161;DHT22;70637;48.514;14.500;2023-07-02T09:39:25;23.70;43.80
81161;DHT22;70637;48.514;14.500;2023-07-02T09:41:51;23.50;44.20
81161;DHT22;70637;48.514;14.500;2023-07-02T09:44:17;23.40;43.90
81161;DHT22;70637;48.514;14.500;2023-07-02T09:46:56;23.40;44.10
81161;DHT22;70637;48.514;14.500;2023-07-02T09:49:24;23.50;44.40
81161;DHT22;70637;48.514;14.500;2023-07-02T09:51:50;23.50;45.10
81161;DHT22;70637;48.514;14.500;2023-07-02T09:54:17;23.50;44.00
81161;DHT22;70637;48.514;14.500;2023-07-02T09:56:46;23.30;44.60
81161;DHT22;70637;48.514;14.500;2023-07-02T09:59:11;23.20;45.30
81161;DHT22;70637;48.514;14.500;2023-07-02T10:01:37;23.20;45.10
81161;DHT22;70637;48.514;14.500;2023-07-02T10:04:13;23.00;45.40
81161;DHT22;70637;48.514;14.500;2023-07-02T10:06:50;23.00;46.10
81161;DHT22;70637;48.514;14.500;2023-07-02T10:09:17;23.10;46.10
81161;DHT22;70637;48.514;14.500;2023-07-02T10:11:43;23.10;46.20
81161;DHT22;70637;48.514;14.500;2023-07-02T10:14:09;23.20;46.50
81161;DHT22;70637;48.514;14.500;2023-07-02T10:16:54;23.20;46.30
81161;DHT22;70637;48.514;14.500;2023-07-02T10:19:20;23.30;45.70
81161;DHT22;70637;48.514;14.500;2023-07-02T10:22:00;23.40;45.30
81161;DHT22;70637;48.514;14.500;2023-07-02T10:24:25;23.30;45.10
81161;DHT22;70637;48.514;14.500;2023-07-02T10:26:57;23.20;46.00
81161;DHT22;70637;48.514;14.500;2023-07-02T10:29:24;23.30;46.90
81161;DHT22;70637;48.514;14.500;2023-07-02T10:31:56;23.40;46.80
81161;DHT22;70637;48.514;14.500;2023-07-02T10:34:33;23.20;46.10
81161;DHT22;70637;48.514;14.500;2023-07-02T10:37:02;23.20;45.00
81161;DHT22;70637;48.514;14.500;2023-07-02T10:39:29;23.30;46.40
81161;DHT22;70637;48.514;14.500;2023-07-02T10:42:07;23.30;46.60
81161;DHT22;70637;48.514;14.500;2023-07-02T10:44:34;23.50;46.80
81161;DHT22;70637;48.514;14.500;2023-07-02T10:47:00;23.60;45.60
81161;DHT22;70637;48.514;14.500;2023-07-02T10:49:32;23.60;45.40
81161;DHT22;70637;48.514;14.500;2023-07-02T10:52:02;23.70;44.70
81161;DHT22;70637;48.514;14.500;2023-07-02T10:54:45;23.80;44.80
81161;DHT22;70637;48.514;14.500;2023-07-02T10:57:14;23.60;44.40
81161;DHT22;70637;48.514;14.500;2023-07-02T10:59:43;23.60;44.40
81161;DHT22;70637;48.514;14.500;2023-07-02T11:02:09;23.50;43.90
81161;DHT22;70637;48.514;14.500;2023-07-02T11:04:36;23.20;44.70
81161;DHT22;70637;48.514;14.500;2023-07-02T11:07:01;23.30;45.30
81161;DHT22;70637;48.514;14.500;2023-07-02T11:09:27;23.40;45.10
81161;DHT22;70637;48.514;14.500;2023-07-02T11:11:55;23.30;44.60
81161;DHT22;70637;48.514;14.500;2023-07-02T11:14:34;23.50;43.90
81161;DHT22;70637;48.514;14.500;2023-07-02T11:17:03;23.40;44.10
81161;DHT22;70637;48.514;14.500;2023-07-02T11:19:31;23.30;44.00
81161;DHT22;70637;48.514;14.500;2023-07-02T11:21:57;23.00;44.20
81161;DHT22;70637;48.514;14.500;2023-07-02T11:24:36;22.80;44.90
81161;DHT22;70637;48.514;14.500;2023-07-02T11:27:05;22.80;45.10
81161;DHT22;70637;48.514;14.500;2023-07-02T11:29:32;22.70;45.50
81161;DHT22;70637;48.514;14.500;2023-07-02T11:32:08;22.60;46.10
81161;DHT22;70637;48.514;14.500;2023-07-02T11:34:34;22.80;45.70
81161;DHT22;70637;48.514;14.500;2023-07-02T11:37:00;22.70;46.20
81161;DHT22;70637;48.514;14.500;2023-07-02T11:39:26;22.80;45.90
81161;DHT22;70637;48.514;14.500;2023-07-02T11:41:52;22.90;45.40
81161;DHT22;70637;48.514;14.500;2023-07-02T11:44:18;22.80;46.70
81161;DHT22;70637;48.514;14.500;2023-07-02T11:46:44;22.70;45.50
81161;DHT22;70637;48.514;14.500;2023-07-02T11:49:12;22.80;45.90
81161;DHT22;70637;48.514;14.500;2023-07-02T11:51:38;23.00;45.50
81161;DHT22;70637;48.514;14.500;2023-07-02T11:54:04;23.00;45.20
81161;DHT22;70637;48.514;14.500;2023-07-02T11:56:30;23.10;46.40
81161;DHT22;70637;48.514;14.500;2023-07-02T11:58:56;23.10;45.00
81161;DHT22;70637;48.514;14.500;2023-07-02T12:01:22;23.30;45.40
81161;DHT22;70637;48.514;14.500;2023-07-02T12:03:50;23.40;43.90
81161;DHT22;70637;48.514;14.500;2023-07-02T12:06:16;23.20;43.40
81161;DHT22;70637;48.514;14.500;2023-07-02T12:08:41;23.20;43.90
81161;DHT22;70637;48.514;14.500;2023-07-02T12:11:07;23.10;44.20
81161;DHT22;70637;48.514;14.500;2023-07-02T12:13:33;23.20;45.30
81161;DHT22;70637;48.514;14.500;2023-07-02T12:15:59;23.10;44.30
81161;DHT22;70637;48.514;14.500;2023-07-02T12:18:25;22.90;44.50
81161;DHT22;70637;48.514;14.500;2023-07-02T12:20:51;22.90;44.90
81161;DHT22;70637;48.514;14.500;2023-07-02T12:23:16;22.90;45.80
81161;DHT22;70637;48.514;14.500;2023-07-02T12:25:42;23.00;44.40
81161;DHT22;70637;48.514;14.500;2023-07-02T12:28:07;23.00;44.50
81161;DHT22;70637;48.514;14.500;2023-07-02T12:30:33;23.00;44.70
81161;DHT22;70637;48.514;14.500;2023-07-02T12:32:59;23.00;44.80
81161;DHT22;70637;48.514;14.500;2023-07-02T12:35:27;23.10;44.50
81161;DHT22;70637;48.514;14.500;2023-07-02T12:37:53;23.20;45.00
81161;DHT22;70637;48.514;14.500;2023-07-02T12:40:19;23.20;44.10
81161;DHT22;70637;48.514;14.500;2023-07-02T12:42:46;23.20;44.60
81161;DHT22;70637;48.514;14.500;2023-07-02T12:45:13;23.20;44.40
81161;DHT22;70637;48.514;14.500;2023-07-02T12:47:40;23.20;45.00
81161;DHT22;70637;48.514;14.500;2023-07-02T12:50:06;23.30;45.10
81161;DHT22;70637;48.514;14.500;2023-07-02T12:52:32;23.60;44.60
81161;DHT22;70637;48.514;14.500;2023-07-02T12:54:58;23.70;43.70
81161;DHT22;70637;48.514;14.500;2023-07-02T12:57:24;23.70;43.60
81161;DHT22;70637;48.514;14.500;2023-07-02T12:59:52;23.90;43.50
81161;DHT22;70637;48.514;14.500;2023-07-02T13:02:18;23.90;43.90
81161;DHT22;70637;48.514;14.500;2023-07-02T13:04:43;24.00;43.90
81161;DHT22;70637;48.514;14.500;2023-07-02T13:07:09;24.20;43.30
81161;DHT22;70637;48.514;14.500;2023-07-02T13:09:35;24.20;43.00
81161;DHT22;70637;48.514;14.500;2023-07-02T13:12:00;24.20;42.10
81161;DHT22;70637;48.514;14.500;2023-07-02T13:14:26;24.20;42.60
81161;DHT22;70637;48.514;14.500;2023-07-02T13:16:51;24.20;43.10
81161;DHT22;70637;48.514;14.500;2023-07-02T13:19:17;24.20;43.00
81161;DHT22;70637;48.514;14.500;2023-07-02T13:21:43;24.20;43.10
81161;DHT22;70637;48.514;14.500;2023-07-02T13:24:08;24.20;42.50
81161;DHT22;70637;48.514;14.500;2023-07-02T13:26:34;24.10;42.80
81161;DHT22;70637;48.514;14.500;2023-07-02T13:28:59;24.00;43.50
81161;DHT22;70637;48.514;14.500;2023-07-02T13:31:25;24.20;43.50
81161;DHT22;70637;48.514;14.500;2023-07-02T13:33:51;24.40;42.60
81161;DHT22;70637;48.514;14.500;2023-07-02T13:36:16;24.50;41.80
81161;DHT22;70637;48.514;14.500;2023-07-02T13:38:42;24.40;40.50
81161;DHT22;70637;48.514;14.500;2023-07-02T13:41:08;24.30;41.00
81161;DHT22;70637;48.514;14.500;2023-07-02T13:43:34;24.30;40.80
81161;DHT22;70637;48.514;14.500;2023-07-02T13:46:01;24.40;40.90
81161;DHT22;70637;48.514;14.500;2023-07-02T13:48:27;24.40;41.20
81161;DHT22;70637;48.514;14.500;2023-07-02T13:50:52;24.30;40.80
81161;DHT22;70637;48.514;14.500;2023-07-02T13:53:18;24.50;41.10
81161;DHT22;70637;48.514;14.500;2023-07-02T13:55:43;24.70;40.70
81161;DHT22;70637;48.514;14.500;2023-07-02T13:58:09;24.80;40.80
81161;DHT22;70637;48.514;14.500;2023-07-02T14:00:34;24.90;40.40
81161;DHT22;70637;48.514;14.500;2023-07-02T14:03:01;25.00;40.40
81161;DHT22;70637;48.514;14.500;2023-07-02T14:05:27;25.10;40.50
81161;DHT22;70637;48.514;14.500;2023-07-02T14:07:52;25.10;40.50
81161;DHT22;70637;48.514;14.500;2023-07-02T14:10:18;25.10;40.60
81161;DHT22;70637;48.514;14.500;2023-07-02T14:12:44;25.10;40.10
81161;DHT22;70637;48.514;14.500;2023-07-02T14:15:10;25.10;39.80
81161;DHT22;70637;48.514;14.500;2023-07-02T14:17:36;25.10;39.80
81161;DHT22;70637;48.514;14.500;2023-07-02T14:20:03;25.20;40.10
81161;DHT22;70637;48.514;14.500;2023-07-02T14:22:29;25.20;40.30
81161;DHT22;70637;48.514;14.500;2023-07-02T14:24:55;25.30;40.70
81161;DHT22;70637;48.514;14.500;2023-07-02T14:27:20;25.50;40.10
81161;DHT22;70637;48.514;14.500;2023-07-02T14:29:46;25.50;38.70
81161;DHT22;70637;48.514;14.500;2023-07-02T14:32:15;25.50;39.00
81161;DHT22;70637;48.514;14.500;2023-07-02T14:34:41;25.30;39.50
81161;DHT22;70637;48.514;14.500;2023-07-02T14:37:07;25.30;39.80
81161;DHT22;70637;48.514;14.500;2023-07-02T14:39:33;25.30;40.10
81161;DHT22;70637;48.514;14.500;2023-07-02T14:41:58;25.30;39.50
81161;DHT22;70637;48.514;14.500;2023-07-02T14:44:24;25.10;39.50
81161;DHT22;70637;48.514;14.500;2023-07-02T14:46:50;25.10;39.20
81161;DHT22;70637;48.514;14.500;2023-07-02T14:49:16;25.00;40.00
81161;DHT22;70637;48.514;14.500;2023-07-02T14:51:42;25.00;40.40
81161;DHT22;70637;48.514;14.500;2023-07-02T14:54:08;24.90;39.50
81161;DHT22;70637;48.514;14.500;2023-07-02T14:56:34;24.90;39.50
81161;DHT22;70637;48.514;14.500;2023-07-02T14:59:02;24.90;39.70
81161;DHT22;70637;48.514;14.500;2023-07-02T15:01:28;24.80;39.30
81161;DHT22;70637;48.514;14.500;2023-07-02T15:03:53;24.80;39.50
81161;DHT22;70637;48.514;14.500;2023-07-02T15:06:19;24.90;39.50
81161;DHT22;70637;48.514;14.500;2023-07-02T15:08:45;25.20;39.30
81161;DHT22;70637;48.514;14.500;2023-07-02T15:11:12;25.50;38.80
81161;DHT22;70637;48.514;14.500;2023-07-02T15:13:38;25.30;38.50
81161;DHT22;70637;48.514;14.500;2023-07-02T15:16:04;25.30;39.10
81161;DHT22;70637;48.514;14.500;2023-07-02T15:18:30;25.20;39.30